Swansea, Illinois
Current Conditions -  °F | °C
As of 9:58 PM on Saturday 22 Nov 2014 (Local Time) from KBLV Reporting Station
Overcast Overcast  
Wind Chill: 52°   Ceiling: 7500
Heat Index: 52°   Visibility: 10mi
Dew Point: 52°   Wind: 7mph
Humidity: 99%   Direction: 150°SSE
Pressure: 29.91"   Gusts: NA
Location:  38.5093°N, 89.8955°W
Report Text: KBLV 230358Z AUTO 15006KT 10SM OVC075 11/11 A2991 RMK AO2 RAB0315E0324DZE0315 SLP132 P0000 T01110110
Loading
Personal Weather Stations






























Interactive Weather Map New forecast layout! Learn more

10-Day Weather Forecast

Advertisements
Track Severe Weather on mobile